sensor_id;sensor_type;location;lat;lon;timestamp;P1;durP1;ratioP1;P2;durP2;ratioP2
16352;SDS011;8286;51.274;9.542;2024-01-06T00:00:19;3.90;;;1.20;;
16352;SDS011;8286;51.274;9.542;2024-01-06T00:02:48;2.83;;;1.53;;
16352;SDS011;8286;51.274;9.542;2024-01-06T00:05:14;2.20;;;1.17;;
16352;SDS011;8286;51.274;9.542;2024-01-06T00:07:41;4.83;;;1.40;;
16352;SDS011;8286;51.274;9.542;2024-01-06T00:10:07;2.10;;;1.20;;
16352;SDS011;8286;51.274;9.542;2024-01-06T00:12:34;2.63;;;1.50;;
16352;SDS011;8286;51.274;9.542;2024-01-06T00:15:02;2.73;;;1.57;;
16352;SDS011;8286;51.274;9.542;2024-01-06T00:17:29;1.30;;;1.20;;
16352;SDS011;8286;51.274;9.542;2024-01-06T00:19:56;6.00;;;1.30;;
16352;SDS011;8286;51.274;9.542;2024-01-06T00:22:25;3.23;;;2.30;;
16352;SDS011;8286;51.274;9.542;2024-01-06T00:24:51;1.53;;;1.20;;
16352;SDS011;8286;51.274;9.542;2024-01-06T00:27:18;3.40;;;1.43;;
16352;SDS011;8286;51.274;9.542;2024-01-06T00:29:44;2.93;;;1.27;;
16352;SDS011;8286;51.274;9.542;2024-01-06T00:32:13;2.73;;;1.07;;
16352;SDS011;8286;51.274;9.542;2024-01-06T00:34:40;1.30;;;1.20;;
16352;SDS011;8286;51.274;9.542;2024-01-06T00:37:06;2.30;;;1.13;;
16352;SDS011;8286;51.274;9.542;2024-01-06T00:39:33;2.93;;;1.30;;
16352;SDS011;8286;51.274;9.542;2024-01-06T00:41:59;1.30;;;1.20;;
16352;SDS011;8286;51.274;9.542;2024-01-06T00:44:26;2.97;;;1.30;;
16352;SDS011;8286;51.274;9.542;2024-01-06T00:46:52;2.83;;;1.47;;
16352;SDS011;8286;51.274;9.542;2024-01-06T00:49:20;6.13;;;1.50;;
16352;SDS011;8286;51.274;9.542;2024-01-06T00:51:47;1.53;;;1.40;;
16352;SDS011;8286;51.274;9.542;2024-01-06T00:54:13;1.50;;;1.33;;
16352;SDS011;8286;51.274;9.542;2024-01-06T00:56:40;1.10;;;1.10;;
16352;SDS011;8286;51.274;9.542;2024-01-06T00:59:07;1.17;;;1.00;;
16352;SDS011;8286;51.274;9.542;2024-01-06T01:01:34;4.37;;;1.60;;
16352;SDS011;8286;51.274;9.542;2024-01-06T01:04:00;5.00;;;1.90;;
16352;SDS011;8286;51.274;9.542;2024-01-06T01:06:29;1.13;;;1.03;;
16352;SDS011;8286;51.274;9.542;2024-01-06T01:08:55;2.27;;;1.60;;
16352;SDS011;8286;51.274;9.542;2024-01-06T01:11:22;3.70;;;1.53;;
16352;SDS011;8286;51.274;9.542;2024-01-06T01:13:48;1.23;;;1.10;;
16352;SDS011;8286;51.274;9.542;2024-01-06T01:16:15;5.17;;;1.60;;
16352;SDS011;8286;51.274;9.542;2024-01-06T01:18:41;1.90;;;1.37;;
16352;SDS011;8286;51.274;9.542;2024-01-06T01:21:07;3.47;;;1.20;;
16352;SDS011;8286;51.274;9.542;2024-01-06T01:23:35;2.87;;;1.80;;
16352;SDS011;8286;51.274;9.542;2024-01-06T01:26:01;2.50;;;1.03;;
16352;SDS011;8286;51.274;9.542;2024-01-06T01:28:28;3.10;;;1.17;;
16352;SDS011;8286;51.274;9.542;2024-01-06T01:30:55;4.07;;;1.20;;
16352;SDS011;8286;51.274;9.542;2024-01-06T01:33:21;3.37;;;1.43;;
16352;SDS011;8286;51.274;9.542;2024-01-06T01:35:49;3.70;;;1.77;;
16352;SDS011;8286;51.274;9.542;2024-01-06T01:38:16;2.67;;;1.43;;
16352;SDS011;8286;51.274;9.542;2024-01-06T01:40:43;2.10;;;1.37;;
16352;SDS011;8286;51.274;9.542;2024-01-06T01:43:15;4.70;;;1.40;;
16352;SDS011;8286;51.274;9.542;2024-01-06T01:45:42;5.30;;;1.27;;
16352;SDS011;8286;51.274;9.542;2024-01-06T01:48:09;4.70;;;1.40;;
16352;SDS011;8286;51.274;9.542;2024-01-06T01:50:36;4.17;;;2.30;;
16352;SDS011;8286;51.274;9.542;2024-01-06T01:53:02;4.53;;;1.70;;
16352;SDS011;8286;51.274;9.542;2024-01-06T01:55:29;1.83;;;1.20;;
16352;SDS011;8286;51.274;9.542;2024-01-06T01:57:57;1.90;;;1.33;;
16352;SDS011;8286;51.274;9.542;2024-01-06T02:00:23;2.30;;;1.63;;
16352;SDS011;8286;51.274;9.542;2024-01-06T02:02:50;2.87;;;1.20;;
16352;SDS011;8286;51.274;9.542;2024-01-06T02:05:17;3.70;;;1.70;;
16352;SDS011;8286;51.274;9.542;2024-01-06T02:07:44;5.30;;;1.87;;
16352;SDS011;8286;51.274;9.542;2024-01-06T02:10:12;1.73;;;1.60;;
16352;SDS011;8286;51.274;9.542;2024-01-06T02:12:39;2.37;;;1.40;;
16352;SDS011;8286;51.274;9.542;2024-01-06T02:15:07;2.90;;;1.70;;
16352;SDS011;8286;51.274;9.542;2024-01-06T02:17:34;2.73;;;1.40;;
16352;SDS011;8286;51.274;9.542;2024-01-06T02:20:00;14.57;;;1.93;;
16352;SDS011;8286;51.274;9.542;2024-01-06T02:22:28;4.67;;;2.00;;
16352;SDS011;8286;51.274;9.542;2024-01-06T02:24:55;3.30;;;1.60;;
16352;SDS011;8286;51.274;9.542;2024-01-06T02:27:21;1.40;;;1.30;;
16352;SDS011;8286;51.274;9.542;2024-01-06T02:29:48;3.60;;;2.17;;
16352;SDS011;8286;51.274;9.542;2024-01-06T02:32:14;3.20;;;1.40;;
16352;SDS011;8286;51.274;9.542;2024-01-06T02:34:41;3.07;;;1.30;;
16352;SDS011;8286;51.274;9.542;2024-01-06T02:37:07;5.40;;;1.67;;
16352;SDS011;8286;51.274;9.542;2024-01-06T02:39:35;6.77;;;1.73;;
16352;SDS011;8286;51.274;9.542;2024-01-06T02:42:02;4.03;;;1.80;;
16352;SDS011;8286;51.274;9.542;2024-01-06T02:44:29;2.30;;;1.70;;
16352;SDS011;8286;51.274;9.542;2024-01-06T02:46:55;5.77;;;1.80;;
16352;SDS011;8286;51.274;9.542;2024-01-06T02:49:22;2.20;;;2.00;;
16352;SDS011;8286;51.274;9.542;2024-01-06T02:51:48;7.57;;;2.53;;
16352;SDS011;8286;51.274;9.542;2024-01-06T02:54:15;5.47;;;1.47;;
16352;SDS011;8286;51.274;9.542;2024-01-06T02:56:42;1.80;;;1.60;;
16352;SDS011;8286;51.274;9.542;2024-01-06T02:59:09;2.07;;;1.73;;
16352;SDS011;8286;51.274;9.542;2024-01-06T03:01:36;6.80;;;1.83;;
16352;SDS011;8286;51.274;9.542;2024-01-06T03:04:02;2.47;;;1.80;;
16352;SDS011;8286;51.274;9.542;2024-01-06T03:06:29;2.20;;;1.50;;
16352;SDS011;8286;51.274;9.542;2024-01-06T03:08:55;4.63;;;1.80;;
16352;SDS011;8286;51.274;9.542;2024-01-06T03:11:22;2.60;;;1.90;;
16352;SDS011;8286;51.274;9.542;2024-01-06T03:13:50;2.17;;;1.63;;
16352;SDS011;8286;51.274;9.542;2024-01-06T03:16:16;4.13;;;1.90;;
16352;SDS011;8286;51.274;9.542;2024-01-06T03:18:43;4.10;;;1.73;;
16352;SDS011;8286;51.274;9.542;2024-01-06T03:21:17;4.87;;;1.60;;
16352;SDS011;8286;51.274;9.542;2024-01-06T03:23:44;4.53;;;1.80;;
16352;SDS011;8286;51.274;9.542;2024-01-06T03:26:11;3.50;;;1.53;;
16352;SDS011;8286;51.274;9.542;2024-01-06T03:28:37;8.27;;;1.97;;
16352;SDS011;8286;51.274;9.542;2024-01-06T03:31:05;3.87;;;1.97;;
16352;SDS011;8286;51.274;9.542;2024-01-06T03:33:32;2.63;;;1.67;;
16352;SDS011;8286;51.274;9.542;2024-01-06T03:35:58;5.13;;;1.77;;
16352;SDS011;8286;51.274;9.542;2024-01-06T03:38:25;2.83;;;1.60;;
16352;SDS011;8286;51.274;9.542;2024-01-06T03:40:51;1.97;;;1.87;;
16352;SDS011;8286;51.274;9.542;2024-01-06T03:43:18;4.13;;;2.17;;
16352;SDS011;8286;51.274;9.542;2024-01-06T03:45:44;6.33;;;1.70;;
16352;SDS011;8286;51.274;9.542;2024-01-06T03:48:12;3.03;;;2.03;;
16352;SDS011;8286;51.274;9.542;2024-01-06T03:50:39;3.87;;;2.00;;
16352;SDS011;8286;51.274;9.542;2024-01-06T03:53:05;3.13;;;2.10;;
16352;SDS011;8286;51.274;9.542;2024-01-06T03:55:32;2.03;;;1.50;;
16352;SDS011;8286;51.274;9.542;2024-01-06T03:57:58;2.23;;;1.57;;
16352;SDS011;8286;51.274;9.542;2024-01-06T04:00:25;3.43;;;1.83;;
16352;SDS011;8286;51.274;9.542;2024-01-06T04:02:52;2.93;;;2.00;;
16352;SDS011;8286;51.274;9.542;2024-01-06T04:05:19;3.30;;;1.17;;
16352;SDS011;8286;51.274;9.542;2024-01-06T04:07:46;4.23;;;1.60;;
16352;SDS011;8286;51.274;9.542;2024-01-06T04:10:12;2.23;;;1.73;;
16352;SDS011;8286;51.274;9.542;2024-01-06T04:12:39;3.97;;;1.63;;
16352;SDS011;8286;51.274;9.542;2024-01-06T04:15:06;4.47;;;1.67;;
16352;SDS011;8286;51.274;9.542;2024-01-06T04:17:33;1.83;;;1.50;;
16352;SDS011;8286;51.274;9.542;2024-01-06T04:19:59;2.00;;;1.20;;
16352;SDS011;8286;51.274;9.542;2024-01-06T04:22:27;2.53;;;1.53;;
16352;SDS011;8286;51.274;9.542;2024-01-06T04:24:54;4.10;;;1.60;;
16352;SDS011;8286;51.274;9.542;2024-01-06T04:27:20;4.00;;;1.63;;
16352;SDS011;8286;51.274;9.542;2024-01-06T04:29:47;2.57;;;1.70;;
16352;SDS011;8286;51.274;9.542;2024-01-06T04:32:13;5.40;;;1.67;;
16352;SDS011;8286;51.274;9.542;2024-01-06T04:34:40;6.10;;;1.57;;
16352;SDS011;8286;51.274;9.542;2024-01-06T04:37:06;3.87;;;2.10;;
16352;SDS011;8286;51.274;9.542;2024-01-06T04:39:34;1.87;;;1.40;;
16352;SDS011;8286;51.274;9.542;2024-01-06T04:42:01;2.07;;;1.70;;
16352;SDS011;8286;51.274;9.542;2024-01-06T04:44:27;2.10;;;1.90;;
16352;SDS011;8286;51.274;9.542;2024-01-06T04:46:54;3.17;;;1.60;;
16352;SDS011;8286;51.274;9.542;2024-01-06T04:49:20;5.33;;;1.97;;
16352;SDS011;8286;51.274;9.542;2024-01-06T04:51:47;3.23;;;1.87;;
16352;SDS011;8286;51.274;9.542;2024-01-06T04:54:14;3.57;;;1.50;;
16352;SDS011;8286;51.274;9.542;2024-01-06T04:56:41;3.53;;;1.47;;
16352;SDS011;8286;51.274;9.542;2024-01-06T04:59:08;3.63;;;1.60;;
16352;SDS011;8286;51.274;9.542;2024-01-06T05:01:34;3.87;;;1.60;;
16352;SDS011;8286;51.274;9.542;2024-01-06T05:04:01;4.83;;;1.60;;
16352;SDS011;8286;51.274;9.542;2024-01-06T05:06:28;2.53;;;1.50;;
16352;SDS011;8286;51.274;9.542;2024-01-06T05:08:54;9.03;;;1.77;;
16352;SDS011;8286;51.274;9.542;2024-01-06T05:11:20;2.37;;;1.80;;
16352;SDS011;8286;51.274;9.542;2024-01-06T05:13:48;1.93;;;1.37;;
16352;SDS011;8286;51.274;9.542;2024-01-06T05:16:15;2.40;;;1.50;;
16352;SDS011;8286;51.274;9.542;2024-01-06T05:18:41;3.00;;;1.50;;
16352;SDS011;8286;51.274;9.542;2024-01-06T05:21:08;1.60;;;1.50;;
16352;SDS011;8286;51.274;9.542;2024-01-06T05:23:34;3.10;;;1.60;;
16352;SDS011;8286;51.274;9.542;2024-01-06T05:26:01;1.43;;;1.30;;
16352;SDS011;8286;51.274;9.542;2024-01-06T05:28:27;3.13;;;1.80;;
16352;SDS011;8286;51.274;9.542;2024-01-06T05:30:55;7.53;;;1.60;;
16352;SDS011;8286;51.274;9.542;2024-01-06T05:33:22;6.30;;;1.63;;
16352;SDS011;8286;51.274;9.542;2024-01-06T05:35:48;1.73;;;1.63;;
16352;SDS011;8286;51.274;9.542;2024-01-06T05:38:15;2.40;;;1.57;;
16352;SDS011;8286;51.274;9.542;2024-01-06T05:40:42;5.27;;;2.20;;
16352;SDS011;8286;51.274;9.542;2024-01-06T05:43:08;4.77;;;1.60;;
16352;SDS011;8286;51.274;9.542;2024-01-06T05:45:35;4.70;;;1.97;;
16352;SDS011;8286;51.274;9.542;2024-01-06T05:48:04;5.57;;;1.80;;
16352;SDS011;8286;51.274;9.542;2024-01-06T05:50:31;3.40;;;1.90;;
16352;SDS011;8286;51.274;9.542;2024-01-06T05:52:57;4.23;;;1.60;;
16352;SDS011;8286;51.274;9.542;2024-01-06T05:55:24;3.40;;;1.67;;
16352;SDS011;8286;51.274;9.542;2024-01-06T05:57:51;5.87;;;1.80;;
16352;SDS011;8286;51.274;9.542;2024-01-06T06:00:18;2.40;;;1.90;;
16352;SDS011;8286;51.274;9.542;2024-01-06T06:02:44;5.93;;;2.00;;
16352;SDS011;8286;51.274;9.542;2024-01-06T06:05:12;3.70;;;1.63;;
16352;SDS011;8286;51.274;9.542;2024-01-06T06:07:39;2.07;;;1.43;;
16352;SDS011;8286;51.274;9.542;2024-01-06T06:10:06;3.00;;;1.80;;
16352;SDS011;8286;51.274;9.542;2024-01-06T06:12:34;5.17;;;1.60;;
16352;SDS011;8286;51.274;9.542;2024-01-06T06:15:00;7.30;;;1.83;;
16352;SDS011;8286;51.274;9.542;2024-01-06T06:17:28;7.30;;;2.03;;
16352;SDS011;8286;51.274;9.542;2024-01-06T06:19:55;3.53;;;1.80;;
16352;SDS011;8286;51.274;9.542;2024-01-06T06:22:23;4.63;;;1.87;;
16352;SDS011;8286;51.274;9.542;2024-01-06T06:24:51;5.30;;;1.83;;
16352;SDS011;8286;51.274;9.542;2024-01-06T06:27:18;5.90;;;2.10;;
16352;SDS011;8286;51.274;9.542;2024-01-06T06:29:44;4.47;;;2.20;;
16352;SDS011;8286;51.274;9.542;2024-01-06T06:32:12;4.40;;;2.10;;
16352;SDS011;8286;51.274;9.542;2024-01-06T06:34:38;4.73;;;2.30;;
16352;SDS011;8286;51.274;9.542;2024-01-06T06:37:05;2.27;;;1.57;;
16352;SDS011;8286;51.274;9.542;2024-01-06T06:39:33;2.50;;;1.93;;
16352;SDS011;8286;51.274;9.542;2024-01-06T06:42:00;4.23;;;1.63;;
16352;SDS011;8286;51.274;9.542;2024-01-06T06:44:26;5.63;;;2.40;;
16352;SDS011;8286;51.274;9.542;2024-01-06T06:46:53;5.80;;;2.07;;
16352;SDS011;8286;51.274;9.542;2024-01-06T06:49:19;2.07;;;1.87;;
16352;SDS011;8286;51.274;9.542;2024-01-06T06:51:46;4.50;;;1.90;;
16352;SDS011;8286;51.274;9.542;2024-01-06T06:54:13;6.67;;;2.43;;
16352;SDS011;8286;51.274;9.542;2024-01-06T06:56:42;2.30;;;2.10;;
16352;SDS011;8286;51.274;9.542;2024-01-06T06:59:08;2.70;;;1.83;;
16352;SDS011;8286;51.274;9.542;2024-01-06T07:01:35;3.27;;;1.60;;
16352;SDS011;8286;51.274;9.542;2024-01-06T07:04:01;4.57;;;2.20;;
16352;SDS011;8286;51.274;9.542;2024-01-06T07:06:28;2.37;;;1.77;;
16352;SDS011;8286;51.274;9.542;2024-01-06T07:08:55;1.77;;;1.63;;
16352;SDS011;8286;51.274;9.542;2024-01-06T07:11:21;2.37;;;1.70;;
16352;SDS011;8286;51.274;9.542;2024-01-06T07:13:49;2.03;;;1.60;;
16352;SDS011;8286;51.274;9.542;2024-01-06T07:16:16;2.73;;;1.70;;
16352;SDS011;8286;51.274;9.542;2024-01-06T07:18:42;2.80;;;1.60;;
16352;SDS011;8286;51.274;9.542;2024-01-06T07:21:09;2.80;;;1.60;;
16352;SDS011;8286;51.274;9.542;2024-01-06T07:23:35;2.27;;;1.67;;
16352;SDS011;8286;51.274;9.542;2024-01-06T07:26:02;4.00;;;1.60;;
16352;SDS011;8286;51.274;9.542;2024-01-06T07:28:28;1.77;;;1.50;;
16352;SDS011;8286;51.274;9.542;2024-01-06T07:30:56;3.57;;;1.70;;
16352;SDS011;8286;51.274;9.542;2024-01-06T07:33:23;3.63;;;1.77;;
16352;SDS011;8286;51.274;9.542;2024-01-06T07:35:50;4.73;;;2.20;;
16352;SDS011;8286;51.274;9.542;2024-01-06T07:38:17;1.63;;;1.53;;
16352;SDS011;8286;51.274;9.542;2024-01-06T07:40:44;2.63;;;2.17;;
16352;SDS011;8286;51.274;9.542;2024-01-06T07:43:11;3.80;;;2.07;;
16352;SDS011;8286;51.274;9.542;2024-01-06T07:45:37;5.10;;;1.47;;
16352;SDS011;8286;51.274;9.542;2024-01-06T07:48:06;2.80;;;1.70;;
16352;SDS011;8286;51.274;9.542;2024-01-06T07:50:33;1.90;;;1.70;;
16352;SDS011;8286;51.274;9.542;2024-01-06T07:52:59;3.97;;;2.00;;
16352;SDS011;8286;51.274;9.542;2024-01-06T07:55:26;14.87;;;7.00;;
16352;SDS011;8286;51.274;9.542;2024-01-06T07:57:54;18.03;;;8.80;;
16352;SDS011;8286;51.274;9.542;2024-01-06T08:00:20;5.67;;;2.90;;
16352;SDS011;8286;51.274;9.542;2024-01-06T08:02:47;4.13;;;2.37;;
16352;SDS011;8286;51.274;9.542;2024-01-06T08:05:15;4.87;;;2.10;;
16352;SDS011;8286;51.274;9.542;2024-01-06T08:07:41;3.97;;;1.93;;
16352;SDS011;8286;51.274;9.542;2024-01-06T08:10:08;2.40;;;2.00;;
16352;SDS011;8286;51.274;9.542;2024-01-06T08:12:35;3.27;;;1.70;;
16352;SDS011;8286;51.274;9.542;2024-01-06T08:15:02;4.07;;;2.57;;
16352;SDS011;8286;51.274;9.542;2024-01-06T08:17:29;6.20;;;2.93;;
16352;SDS011;8286;51.274;9.542;2024-01-06T08:19:56;3.80;;;2.10;;
16352;SDS011;8286;51.274;9.542;2024-01-06T08:22:24;3.20;;;2.23;;
16352;SDS011;8286;51.274;9.542;2024-01-06T08:24:50;4.40;;;2.73;;
16352;SDS011;8286;51.274;9.542;2024-01-06T08:27:17;5.87;;;3.00;;
16352;SDS011;8286;51.274;9.542;2024-01-06T08:29:44;4.43;;;3.17;;
16352;SDS011;8286;51.274;9.542;2024-01-06T08:32:10;7.27;;;4.00;;
16352;SDS011;8286;51.274;9.542;2024-01-06T08:34:38;4.53;;;2.93;;
16352;SDS011;8286;51.274;9.542;2024-01-06T08:37:04;5.63;;;2.87;;
16352;SDS011;8286;51.274;9.542;2024-01-06T08:39:32;5.10;;;2.50;;
16352;SDS011;8286;51.274;9.542;2024-01-06T08:41:59;3.23;;;1.97;;
16352;SDS011;8286;51.274;9.542;2024-01-06T08:44:25;3.93;;;2.80;;
16352;SDS011;8286;51.274;9.542;2024-01-06T08:46:51;4.07;;;2.60;;
16352;SDS011;8286;51.274;9.542;2024-01-06T08:49:17;6.37;;;2.50;;
16352;SDS011;8286;51.274;9.542;2024-01-06T08:51:44;2.20;;;1.90;;
16352;SDS011;8286;51.274;9.542;2024-01-06T08:54:10;4.27;;;2.07;;
16352;SDS011;8286;51.274;9.542;2024-01-06T08:56:38;3.77;;;2.17;;
16352;SDS011;8286;51.274;9.542;2024-01-06T08:59:05;2.73;;;1.87;;
16352;SDS011;8286;51.274;9.542;2024-01-06T09:01:31;3.47;;;2.70;;
16352;SDS011;8286;51.274;9.542;2024-01-06T09:03:59;3.20;;;2.20;;
16352;SDS011;8286;51.274;9.542;2024-01-06T09:06:25;3.00;;;2.23;;
16352;SDS011;8286;51.274;9.542;2024-01-06T09:08:52;14.30;;;2.40;;
16352;SDS011;8286;51.274;9.542;2024-01-06T09:11:18;3.70;;;3.13;;
16352;SDS011;8286;51.274;9.542;2024-01-06T09:13:46;3.17;;;1.93;;
16352;SDS011;8286;51.274;9.542;2024-01-06T09:16:13;5.03;;;2.77;;
16352;SDS011;8286;51.274;9.542;2024-01-06T09:18:39;3.83;;;2.30;;
16352;SDS011;8286;51.274;9.542;2024-01-06T09:21:06;5.47;;;2.23;;
16352;SDS011;8286;51.274;9.542;2024-01-06T09:23:33;2.47;;;2.30;;
16352;SDS011;8286;51.274;9.542;2024-01-06T09:25:59;5.67;;;2.40;;
16352;SDS011;8286;51.274;9.542;2024-01-06T09:28:26;8.90;;;3.50;;
16352;SDS011;8286;51.274;9.542;2024-01-06T09:30:54;3.63;;;2.60;;
16352;SDS011;8286;51.274;9.542;2024-01-06T09:33:21;8.03;;;3.00;;
16352;SDS011;8286;51.274;9.542;2024-01-06T09:35:47;5.50;;;2.77;;
16352;SDS011;8286;51.274;9.542;2024-01-06T09:38:14;3.93;;;2.53;;
16352;SDS011;8286;51.274;9.542;2024-01-06T09:40:41;2.97;;;2.40;;
16352;SDS011;8286;51.274;9.542;2024-01-06T09:43:09;6.70;;;2.47;;
16352;SDS011;8286;51.274;9.542;2024-01-06T09:45:36;4.43;;;3.27;;
16352;SDS011;8286;51.274;9.542;2024-01-06T09:48:08;6.93;;;2.50;;
16352;SDS011;8286;51.274;9.542;2024-01-06T09:50:36;3.77;;;2.80;;
16352;SDS011;8286;51.274;9.542;2024-01-06T09:53:04;10.17;;;3.00;;
16352;SDS011;8286;51.274;9.542;2024-01-06T09:55:32;2.50;;;2.30;;
16352;SDS011;8286;51.274;9.542;2024-01-06T09:57:58;5.60;;;3.00;;
16352;SDS011;8286;51.274;9.542;2024-01-06T10:00:25;4.93;;;2.87;;
16352;SDS011;8286;51.274;9.542;2024-01-06T10:02:52;8.23;;;2.67;;
16352;SDS011;8286;51.274;9.542;2024-01-06T10:05:21;5.90;;;2.30;;
16352;SDS011;8286;51.274;9.542;2024-01-06T10:07:48;5.13;;;2.47;;
16352;SDS011;8286;51.274;9.542;2024-01-06T10:10:14;3.80;;;2.20;;
16352;SDS011;8286;51.274;9.542;2024-01-06T10:12:42;3.93;;;2.47;;
16352;SDS011;8286;51.274;9.542;2024-01-06T10:15:09;7.57;;;3.97;;
16352;SDS011;8286;51.274;9.542;2024-01-06T10:17:36;7.40;;;3.60;;
16352;SDS011;8286;51.274;9.542;2024-01-06T10:20:06;9.87;;;3.70;;
16352;SDS011;8286;51.274;9.542;2024-01-06T10:22:35;4.40;;;2.30;;
16352;SDS011;8286;51.274;9.542;2024-01-06T10:25:02;4.10;;;2.43;;
16352;SDS011;8286;51.274;9.542;2024-01-06T10:27:29;8.77;;;2.73;;
16352;SDS011;8286;51.274;9.542;2024-01-06T10:29:56;5.20;;;2.50;;
16352;SDS011;8286;51.274;9.542;2024-01-06T10:32:22;4.47;;;2.63;;
16352;SDS011;8286;51.274;9.542;2024-01-06T10:34:53;3.30;;;2.43;;
16352;SDS011;8286;51.274;9.542;2024-01-06T10:37:20;5.23;;;2.30;;
16352;SDS011;8286;51.274;9.542;2024-01-06T10:39:48;3.47;;;2.63;;
16352;SDS011;8286;51.274;9.542;2024-01-06T10:42:14;7.93;;;3.07;;
16352;SDS011;8286;51.274;9.542;2024-01-06T10:44:41;5.13;;;2.13;;
16352;SDS011;8286;51.274;9.542;2024-01-06T10:47:08;6.93;;;2.97;;
16352;SDS011;8286;51.274;9.542;2024-01-06T10:49:35;4.90;;;2.60;;
16352;SDS011;8286;51.274;9.542;2024-01-06T10:52:03;2.33;;;2.13;;
16352;SDS011;8286;51.274;9.542;2024-01-06T10:54:31;6.27;;;2.70;;
16352;SDS011;8286;51.274;9.542;2024-01-06T10:56:59;6.00;;;3.73;;
16352;SDS011;8286;51.274;9.542;2024-01-06T10:59:27;9.63;;;3.37;;
16352;SDS011;8286;51.274;9.542;2024-01-06T11:01:54;7.00;;;3.33;;
16352;SDS011;8286;51.274;9.542;2024-01-06T11:04:22;5.17;;;3.27;;
16352;SDS011;8286;51.274;9.542;2024-01-06T11:06:48;4.93;;;3.33;;
16352;SDS011;8286;51.274;9.542;2024-01-06T11:09:16;7.90;;;3.27;;
16352;SDS011;8286;51.274;9.542;2024-01-06T11:11:46;3.30;;;2.70;;
16352;SDS011;8286;51.274;9.542;2024-01-06T11:14:21;4.33;;;2.37;;
16352;SDS011;8286;51.274;9.542;2024-01-06T11:16:49;3.93;;;2.50;;
16352;SDS011;8286;51.274;9.542;2024-01-06T11:22:20;3.87;;;2.70;;
16352;SDS011;8286;51.274;9.542;2024-01-06T11:24:49;4.87;;;2.77;;
16352;SDS011;8286;51.274;9.542;2024-01-06T11:27:17;3.97;;;2.63;;
16352;SDS011;8286;51.274;9.542;2024-01-06T11:29:45;7.60;;;3.10;;
16352;SDS011;8286;51.274;9.542;2024-01-06T11:32:18;5.07;;;3.10;;
16352;SDS011;8286;51.274;9.542;2024-01-06T11:34:49;3.27;;;2.77;;
16352;SDS011;8286;51.274;9.542;2024-01-06T11:37:19;5.90;;;3.30;;
16352;SDS011;8286;51.274;9.542;2024-01-06T11:39:46;5.90;;;3.30;;
16352;SDS011;8286;51.274;9.542;2024-01-06T11:42:13;7.47;;;3.33;;
16352;SDS011;8286;51.274;9.542;2024-01-06T11:44:40;4.63;;;3.27;;
16352;SDS011;8286;51.274;9.542;2024-01-06T11:47:11;10.97;;;3.50;;
16352;SDS011;8286;51.274;9.542;2024-01-06T11:49:38;9.00;;;3.40;;
16352;SDS011;8286;51.274;9.542;2024-01-06T11:52:05;8.73;;;3.97;;
16352;SDS011;8286;51.274;9.542;2024-01-06T11:54:31;7.33;;;3.33;;
16352;SDS011;8286;51.274;9.542;2024-01-06T11:56:58;8.90;;;3.10;;
16352;SDS011;8286;51.274;9.542;2024-01-06T11:59:25;5.70;;;3.20;;
16352;SDS011;8286;51.274;9.542;2024-01-06T12:01:51;4.63;;;3.00;;
16352;SDS011;8286;51.274;9.542;2024-01-06T12:04:19;9.33;;;3.70;;
16352;SDS011;8286;51.274;9.542;2024-01-06T12:06:47;5.83;;;3.70;;
16352;SDS011;8286;51.274;9.542;2024-01-06T12:09:14;8.20;;;3.40;;
16352;SDS011;8286;51.274;9.542;2024-01-06T12:11:44;6.87;;;3.00;;
16352;SDS011;8286;51.274;9.542;2024-01-06T12:14:12;6.43;;;3.57;;
16352;SDS011;8286;51.274;9.542;2024-01-06T12:16:38;6.63;;;3.27;;
16352;SDS011;8286;51.274;9.542;2024-01-06T12:19:05;5.60;;;3.83;;
16352;SDS011;8286;51.274;9.542;2024-01-06T12:21:33;4.40;;;3.07;;
16352;SDS011;8286;51.274;9.542;2024-01-06T12:24:18;10.13;;;3.30;;
16352;SDS011;8286;51.274;9.542;2024-01-06T12:26:46;6.97;;;3.80;;
16352;SDS011;8286;51.274;9.542;2024-01-06T12:29:13;5.77;;;3.13;;
16352;SDS011;8286;51.274;9.542;2024-01-06T12:31:39;9.60;;;3.00;;
16352;SDS011;8286;51.274;9.542;2024-01-06T12:34:06;5.43;;;3.10;;
16352;SDS011;8286;51.274;9.542;2024-01-06T12:36:34;9.07;;;4.13;;
16352;SDS011;8286;51.274;9.542;2024-01-06T12:39:02;4.17;;;3.00;;
16352;SDS011;8286;51.274;9.542;2024-01-06T12:41:29;7.17;;;3.80;;
16352;SDS011;8286;51.274;9.542;2024-01-06T12:43:58;6.60;;;3.50;;
16352;SDS011;8286;51.274;9.542;2024-01-06T12:46:24;9.07;;;4.10;;
16352;SDS011;8286;51.274;9.542;2024-01-06T12:48:51;4.43;;;3.30;;
16352;SDS011;8286;51.274;9.542;2024-01-06T12:51:17;5.53;;;3.47;;
16352;SDS011;8286;51.274;9.542;2024-01-06T12:53:45;12.63;;;3.77;;
16352;SDS011;8286;51.274;9.542;2024-01-06T12:56:12;8.50;;;4.67;;
16352;SDS011;8286;51.274;9.542;2024-01-06T12:58:39;5.20;;;3.40;;
16352;SDS011;8286;51.274;9.542;2024-01-06T13:01:06;6.27;;;4.07;;
16352;SDS011;8286;51.274;9.542;2024-01-06T13:03:32;8.03;;;4.03;;
16352;SDS011;8286;51.274;9.542;2024-01-06T13:05:59;7.83;;;3.73;;
16352;SDS011;8286;51.274;9.542;2024-01-06T13:08:26;7.70;;;3.60;;
16352;SDS011;8286;51.274;9.542;2024-01-06T13:10:55;8.47;;;3.87;;
16352;SDS011;8286;51.274;9.542;2024-01-06T13:13:22;6.10;;;3.60;;
16352;SDS011;8286;51.274;9.542;2024-01-06T13:15:48;5.97;;;3.50;;
16352;SDS011;8286;51.274;9.542;2024-01-06T13:18:15;10.37;;;3.60;;
16352;SDS011;8286;51.274;9.542;2024-01-06T13:20:42;6.40;;;3.97;;
16352;SDS011;8286;51.274;9.542;2024-01-06T13:23:09;8.00;;;3.80;;
16352;SDS011;8286;51.274;9.542;2024-01-06T13:25:36;8.20;;;3.80;;
16352;SDS011;8286;51.274;9.542;2024-01-06T13:28:05;9.10;;;4.17;;
16352;SDS011;8286;51.274;9.542;2024-01-06T13:30:32;6.20;;;4.23;;
16352;SDS011;8286;51.274;9.542;2024-01-06T13:32:58;9.83;;;3.60;;
16352;SDS011;8286;51.274;9.542;2024-01-06T13:35:25;9.23;;;4.43;;
16352;SDS011;8286;51.274;9.542;2024-01-06T13:37:54;9.00;;;4.03;;
16352;SDS011;8286;51.274;9.542;2024-01-06T13:40:21;6.90;;;3.80;;
16352;SDS011;8286;51.274;9.542;2024-01-06T13:42:48;10.10;;;4.10;;
16352;SDS011;8286;51.274;9.542;2024-01-06T13:45:17;8.50;;;3.80;;
16352;SDS011;8286;51.274;9.542;2024-01-06T13:47:43;6.47;;;4.33;;
16352;SDS011;8286;51.274;9.542;2024-01-06T13:50:11;8.30;;;5.60;;
16352;SDS011;8286;51.274;9.542;2024-01-06T13:52:38;7.33;;;4.70;;
16352;SDS011;8286;51.274;9.542;2024-01-06T13:55:05;6.60;;;5.23;;
16352;SDS011;8286;51.274;9.542;2024-01-06T13:57:33;5.37;;;4.13;;
16352;SDS011;8286;51.274;9.542;2024-01-06T14:00:00;10.67;;;4.27;;
16352;SDS011;8286;51.274;9.542;2024-01-06T14:02:30;7.33;;;3.80;;
16352;SDS011;8286;51.274;9.542;2024-01-06T14:04:57;3.33;;;3.03;;
16352;SDS011;8286;51.274;9.542;2024-01-06T14:07:23;4.53;;;3.40;;
16352;SDS011;8286;51.274;9.542;2024-01-06T14:09:51;3.20;;;2.80;;
16352;SDS011;8286;51.274;9.542;2024-01-06T14:12:17;4.57;;;2.80;;
16352;SDS011;8286;51.274;9.542;2024-01-06T14:14:44;2.87;;;2.67;;
16352;SDS011;8286;51.274;9.542;2024-01-06T14:17:11;2.37;;;2.17;;
16352;SDS011;8286;51.274;9.542;2024-01-06T14:19:39;2.90;;;2.10;;
16352;SDS011;8286;51.274;9.542;2024-01-06T14:22:05;5.03;;;2.00;;
16352;SDS011;8286;51.274;9.542;2024-01-06T14:24:32;2.10;;;1.90;;
16352;SDS011;8286;51.274;9.542;2024-01-06T14:26:58;2.93;;;2.27;;
16352;SDS011;8286;51.274;9.542;2024-01-06T14:29:25;2.20;;;1.90;;
16352;SDS011;8286;51.274;9.542;2024-01-06T14:31:52;5.63;;;2.30;;
16352;SDS011;8286;51.274;9.542;2024-01-06T14:34:18;2.53;;;2.00;;
16352;SDS011;8286;51.274;9.542;2024-01-06T14:36:46;2.03;;;1.80;;
16352;SDS011;8286;51.274;9.542;2024-01-06T14:39:13;2.80;;;2.10;;
16352;SDS011;8286;51.274;9.542;2024-01-06T14:41:40;1.90;;;1.70;;
16352;SDS011;8286;51.274;9.542;2024-01-06T14:44:07;2.53;;;1.77;;
16352;SDS011;8286;51.274;9.542;2024-01-06T14:46:33;1.70;;;1.60;;
16352;SDS011;8286;51.274;9.542;2024-01-06T14:49:02;2.57;;;1.90;;
16352;SDS011;8286;51.274;9.542;2024-01-06T14:51:29;2.10;;;1.90;;
16352;SDS011;8286;51.274;9.542;2024-01-06T14:53:57;2.57;;;1.73;;
16352;SDS011;8286;51.274;9.542;2024-01-06T14:56:23;1.47;;;1.33;;
16352;SDS011;8286;51.274;9.542;2024-01-06T14:58:50;1.93;;;1.73;;
16352;SDS011;8286;51.274;9.542;2024-01-06T15:01:17;2.07;;;1.70;;